sensor_id;sensor_type;location;lat;lon;timestamp;temperature;humidity
19180;DHT22;9722;48.754;8.868;2024-03-25T00:02:48;6.00;97.40
19180;DHT22;9722;48.754;8.868;2024-03-25T00:06:09;6.00;97.50
19180;DHT22;9722;48.754;8.868;2024-03-25T00:09:29;6.00;97.50
19180;DHT22;9722;48.754;8.868;2024-03-25T00:12:50;6.00;97.50
19180;DHT22;9722;48.754;8.868;2024-03-25T00:16:14;6.00;97.40
19180;DHT22;9722;48.754;8.868;2024-03-25T00:19:35;6.00;97.40
19180;DHT22;9722;48.754;8.868;2024-03-25T00:22:55;5.90;97.40
19180;DHT22;9722;48.754;8.868;2024-03-25T00:26:16;5.90;97.40
19180;DHT22;9722;48.754;8.868;2024-03-25T00:29:37;5.90;97.50
19180;DHT22;9722;48.754;8.868;2024-03-25T00:32:58;5.90;97.50
19180;DHT22;9722;48.754;8.868;2024-03-25T00:36:18;5.90;97.50
19180;DHT22;9722;48.754;8.868;2024-03-25T00:39:39;5.90;97.60
19180;DHT22;9722;48.754;8.868;2024-03-25T00:42:59;5.90;97.60
19180;DHT22;9722;48.754;8.868;2024-03-25T00:46:20;5.80;97.50
19180;DHT22;9722;48.754;8.868;2024-03-25T00:49:40;5.80;97.60
19180;DHT22;9722;48.754;8.868;2024-03-25T00:53:01;5.90;97.60
19180;DHT22;9722;48.754;8.868;2024-03-25T00:56:21;5.80;97.50
19180;DHT22;9722;48.754;8.868;2024-03-25T00:59:42;5.80;97.50
19180;DHT22;9722;48.754;8.868;2024-03-25T01:03:03;5.80;97.60
19180;DHT22;9722;48.754;8.868;2024-03-25T01:06:23;5.80;97.50
19180;DHT22;9722;48.754;8.868;2024-03-25T01:09:44;5.80;97.70
19180;DHT22;9722;48.754;8.868;2024-03-25T01:13:04;5.80;97.60
19180;DHT22;9722;48.754;8.868;2024-03-25T01:16:25;5.80;97.60
19180;DHT22;9722;48.754;8.868;2024-03-25T01:19:45;5.80;97.60
19180;DHT22;9722;48.754;8.868;2024-03-25T01:23:06;5.80;97.70
19180;DHT22;9722;48.754;8.868;2024-03-25T01:26:27;5.70;97.70
19180;DHT22;9722;48.754;8.868;2024-03-25T01:29:47;5.70;98.10
19180;DHT22;9722;48.754;8.868;2024-03-25T01:33:08;5.70;97.90
19180;DHT22;9722;48.754;8.868;2024-03-25T01:36:28;5.60;97.80
19180;DHT22;9722;48.754;8.868;2024-03-25T01:39:49;5.60;97.80
19180;DHT22;9722;48.754;8.868;2024-03-25T01:43:09;5.60;97.90
19180;DHT22;9722;48.754;8.868;2024-03-25T01:46:30;5.70;97.90
19180;DHT22;9722;48.754;8.868;2024-03-25T01:49:50;5.70;97.90
19180;DHT22;9722;48.754;8.868;2024-03-25T01:53:14;5.70;97.90
19180;DHT22;9722;48.754;8.868;2024-03-25T01:56:35;5.80;97.90
19180;DHT22;9722;48.754;8.868;2024-03-25T01:59:57;5.80;97.90
19180;DHT22;9722;48.754;8.868;2024-03-25T02:03:18;5.80;97.90
19180;DHT22;9722;48.754;8.868;2024-03-25T02:06:40;5.90;97.80
19180;DHT22;9722;48.754;8.868;2024-03-25T02:10:02;5.90;97.80
19180;DHT22;9722;48.754;8.868;2024-03-25T02:13:24;5.90;97.70
19180;DHT22;9722;48.754;8.868;2024-03-25T02:16:44;5.90;97.60
19180;DHT22;9722;48.754;8.868;2024-03-25T02:20:06;6.00;97.60
19180;DHT22;9722;48.754;8.868;2024-03-25T02:23:28;5.90;97.60
19180;DHT22;9722;48.754;8.868;2024-03-25T02:26:49;6.00;97.60
19180;DHT22;9722;48.754;8.868;2024-03-25T02:30:11;6.00;97.60
19180;DHT22;9722;48.754;8.868;2024-03-25T02:33:35;5.90;97.60
19180;DHT22;9722;48.754;8.868;2024-03-25T02:36:56;5.90;97.60
19180;DHT22;9722;48.754;8.868;2024-03-25T02:40:16;5.90;97.50
19180;DHT22;9722;48.754;8.868;2024-03-25T02:43:38;6.00;97.50
19180;DHT22;9722;48.754;8.868;2024-03-25T02:46:58;6.00;97.50
19180;DHT22;9722;48.754;8.868;2024-03-25T02:50:19;5.90;97.30
19180;DHT22;9722;48.754;8.868;2024-03-25T02:53:40;6.00;97.40
19180;DHT22;9722;48.754;8.868;2024-03-25T02:57:01;5.90;97.30
19180;DHT22;9722;48.754;8.868;2024-03-25T03:00:21;6.00;97.40
19180;DHT22;9722;48.754;8.868;2024-03-25T03:03:41;5.90;97.30
19180;DHT22;9722;48.754;8.868;2024-03-25T03:07:02;5.90;97.30
19180;DHT22;9722;48.754;8.868;2024-03-25T03:10:23;6.00;97.30
19180;DHT22;9722;48.754;8.868;2024-03-25T03:13:43;5.90;97.30
19180;DHT22;9722;48.754;8.868;2024-03-25T03:17:04;5.90;97.30
19180;DHT22;9722;48.754;8.868;2024-03-25T03:20:25;5.90;97.40
19180;DHT22;9722;48.754;8.868;2024-03-25T03:23:46;5.80;97.40
19180;DHT22;9722;48.754;8.868;2024-03-25T03:27:07;5.80;97.50
19180;DHT22;9722;48.754;8.868;2024-03-25T03:30:27;5.80;97.50
19180;DHT22;9722;48.754;8.868;2024-03-25T03:33:48;5.80;97.50
19180;DHT22;9722;48.754;8.868;2024-03-25T03:37:09;5.70;97.50
19180;DHT22;9722;48.754;8.868;2024-03-25T03:40:31;5.60;97.50
19180;DHT22;9722;48.754;8.868;2024-03-25T03:43:52;5.60;97.60
19180;DHT22;9722;48.754;8.868;2024-03-25T03:47:12;5.60;97.70
19180;DHT22;9722;48.754;8.868;2024-03-25T03:50:33;5.50;97.70
19180;DHT22;9722;48.754;8.868;2024-03-25T03:53:53;5.40;97.80
19180;DHT22;9722;48.754;8.868;2024-03-25T03:57:14;5.40;97.80
19180;DHT22;9722;48.754;8.868;2024-03-25T04:00:35;5.30;97.90
19180;DHT22;9722;48.754;8.868;2024-03-25T04:03:55;5.20;97.90
19180;DHT22;9722;48.754;8.868;2024-03-25T04:07:16;5.10;98.00
19180;DHT22;9722;48.754;8.868;2024-03-25T04:10:38;5.00;98.30
19180;DHT22;9722;48.754;8.868;2024-03-25T04:13:59;4.90;98.30
19180;DHT22;9722;48.754;8.868;2024-03-25T04:17:19;4.90;98.60
19180;DHT22;9722;48.754;8.868;2024-03-25T04:20:41;4.80;98.60
19180;DHT22;9722;48.754;8.868;2024-03-25T04:24:02;4.70;98.70
19180;DHT22;9722;48.754;8.868;2024-03-25T04:27:23;4.70;98.90
19180;DHT22;9722;48.754;8.868;2024-03-25T04:30:50;4.60;99.30
19180;DHT22;9722;48.754;8.868;2024-03-25T04:34:11;4.60;99.50
19180;DHT22;9722;48.754;8.868;2024-03-25T04:37:32;4.50;99.30
19180;DHT22;9722;48.754;8.868;2024-03-25T04:40:53;4.40;99.40
19180;DHT22;9722;48.754;8.868;2024-03-25T04:44:14;4.50;99.60
19180;DHT22;9722;48.754;8.868;2024-03-25T04:47:35;4.40;99.70
19180;DHT22;9722;48.754;8.868;2024-03-25T04:50:55;4.50;99.80
19180;DHT22;9722;48.754;8.868;2024-03-25T04:54:16;4.50;99.80
19180;DHT22;9722;48.754;8.868;2024-03-25T04:57:36;4.60;99.80
19180;DHT22;9722;48.754;8.868;2024-03-25T05:00:56;4.70;99.80
19180;DHT22;9722;48.754;8.868;2024-03-25T05:04:18;4.70;99.80
19180;DHT22;9722;48.754;8.868;2024-03-25T05:07:39;4.70;99.80
19180;DHT22;9722;48.754;8.868;2024-03-25T05:10:59;4.80;99.90
19180;DHT22;9722;48.754;8.868;2024-03-25T05:14:20;4.80;99.90
19180;DHT22;9722;48.754;8.868;2024-03-25T05:17:40;4.80;99.90
19180;DHT22;9722;48.754;8.868;2024-03-25T05:21:01;4.80;99.90
19180;DHT22;9722;48.754;8.868;2024-03-25T05:24:21;4.70;99.90
19180;DHT22;9722;48.754;8.868;2024-03-25T05:27:42;4.70;99.90
19180;DHT22;9722;48.754;8.868;2024-03-25T05:31:09;4.70;99.90
19180;DHT22;9722;48.754;8.868;2024-03-25T05:34:29;4.70;99.90
19180;DHT22;9722;48.754;8.868;2024-03-25T05:37:51;4.80;99.90
19180;DHT22;9722;48.754;8.868;2024-03-25T05:41:12;4.80;99.90
19180;DHT22;9722;48.754;8.868;2024-03-25T05:44:33;4.90;99.90
19180;DHT22;9722;48.754;8.868;2024-03-25T05:47:53;5.00;99.90
19180;DHT22;9722;48.754;8.868;2024-03-25T05:51:14;5.00;99.90
19180;DHT22;9722;48.754;8.868;2024-03-25T05:54:35;5.10;99.90
19180;DHT22;9722;48.754;8.868;2024-03-25T05:57:55;5.10;99.90
19180;DHT22;9722;48.754;8.868;2024-03-25T06:01:16;5.20;99.90
19180;DHT22;9722;48.754;8.868;2024-03-25T06:04:36;5.20;99.90
19180;DHT22;9722;48.754;8.868;2024-03-25T06:07:57;5.20;99.90
19180;DHT22;9722;48.754;8.868;2024-03-25T06:11:17;5.20;99.90
19180;DHT22;9722;48.754;8.868;2024-03-25T06:14:38;5.10;99.90
19180;DHT22;9722;48.754;8.868;2024-03-25T06:17:58;5.10;99.90
19180;DHT22;9722;48.754;8.868;2024-03-25T06:21:19;5.20;99.90
19180;DHT22;9722;48.754;8.868;2024-03-25T06:24:39;5.30;99.90
19180;DHT22;9722;48.754;8.868;2024-03-25T06:28:00;5.60;99.90
19180;DHT22;9722;48.754;8.868;2024-03-25T06:31:20;5.90;99.80
19180;DHT22;9722;48.754;8.868;2024-03-25T06:34:59;6.10;99.50
19180;DHT22;9722;48.754;8.868;2024-03-25T06:38:22;6.70;99.20
19180;DHT22;9722;48.754;8.868;2024-03-25T06:41:42;7.50;98.30
19180;DHT22;9722;48.754;8.868;2024-03-25T06:45:03;8.20;96.70
19180;DHT22;9722;48.754;8.868;2024-03-25T06:48:23;8.80;95.70
19180;DHT22;9722;48.754;8.868;2024-03-25T06:51:44;9.40;94.20
19180;DHT22;9722;48.754;8.868;2024-03-25T06:55:05;9.90;92.40
19180;DHT22;9722;48.754;8.868;2024-03-25T06:58:27;10.20;90.20
19180;DHT22;9722;48.754;8.868;2024-03-25T07:01:48;10.50;86.40
19180;DHT22;9722;48.754;8.868;2024-03-25T07:05:08;10.80;84.30
19180;DHT22;9722;48.754;8.868;2024-03-25T07:08:29;11.30;82.50
19180;DHT22;9722;48.754;8.868;2024-03-25T07:11:50;11.90;78.70
19180;DHT22;9722;48.754;8.868;2024-03-25T07:15:11;12.00;75.60
19180;DHT22;9722;48.754;8.868;2024-03-25T07:18:31;12.10;73.30
19180;DHT22;9722;48.754;8.868;2024-03-25T07:21:52;12.10;71.20
19180;DHT22;9722;48.754;8.868;2024-03-25T07:25:12;12.20;70.00
19180;DHT22;9722;48.754;8.868;2024-03-25T07:28:33;12.50;68.30
19180;DHT22;9722;48.754;8.868;2024-03-25T07:31:53;12.90;67.80
19180;DHT22;9722;48.754;8.868;2024-03-25T07:35:14;13.40;66.60
19180;DHT22;9722;48.754;8.868;2024-03-25T07:38:37;14.00;64.50
19180;DHT22;9722;48.754;8.868;2024-03-25T07:41:58;14.50;63.40
19180;DHT22;9722;48.754;8.868;2024-03-25T07:45:19;15.20;60.80
19180;DHT22;9722;48.754;8.868;2024-03-25T07:48:40;15.50;57.60
19180;DHT22;9722;48.754;8.868;2024-03-25T07:52:00;15.70;57.30
19180;DHT22;9722;48.754;8.868;2024-03-25T07:55:21;16.30;57.20
19180;DHT22;9722;48.754;8.868;2024-03-25T07:58:41;17.10;55.80
19180;DHT22;9722;48.754;8.868;2024-03-25T08:02:02;17.50;53.80
19180;DHT22;9722;48.754;8.868;2024-03-25T08:05:23;17.90;53.50
19180;DHT22;9722;48.754;8.868;2024-03-25T08:08:43;18.30;51.90
19180;DHT22;9722;48.754;8.868;2024-03-25T08:12:04;18.60;50.90
19180;DHT22;9722;48.754;8.868;2024-03-25T08:15:24;19.10;50.30
19180;DHT22;9722;48.754;8.868;2024-03-25T08:18:46;19.50;49.30
19180;DHT22;9722;48.754;8.868;2024-03-25T08:22:07;20.00;48.30
19180;DHT22;9722;48.754;8.868;2024-03-25T08:25:27;20.70;48.10
19180;DHT22;9722;48.754;8.868;2024-03-25T08:28:48;21.10;46.40
19180;DHT22;9722;48.754;8.868;2024-03-25T08:32:09;21.40;46.00
19180;DHT22;9722;48.754;8.868;2024-03-25T08:35:30;21.60;44.80
19180;DHT22;9722;48.754;8.868;2024-03-25T08:38:50;21.50;45.50
19180;DHT22;9722;48.754;8.868;2024-03-25T08:42:10;21.90;44.40
19180;DHT22;9722;48.754;8.868;2024-03-25T08:45:31;22.50;43.20
19180;DHT22;9722;48.754;8.868;2024-03-25T08:48:51;23.10;42.40
19180;DHT22;9722;48.754;8.868;2024-03-25T08:52:12;23.70;41.00
19180;DHT22;9722;48.754;8.868;2024-03-25T08:55:32;23.10;40.30
19180;DHT22;9722;48.754;8.868;2024-03-25T08:58:53;21.90;40.50
19180;DHT22;9722;48.754;8.868;2024-03-25T09:02:15;20.70;41.60
19180;DHT22;9722;48.754;8.868;2024-03-25T09:05:35;19.80;42.30
19180;DHT22;9722;48.754;8.868;2024-03-25T09:08:56;19.50;43.30
19180;DHT22;9722;48.754;8.868;2024-03-25T09:12:34;20.40;43.20
19180;DHT22;9722;48.754;8.868;2024-03-25T09:15:55;21.10;42.10
19180;DHT22;9722;48.754;8.868;2024-03-25T09:19:15;20.70;41.50
19180;DHT22;9722;48.754;8.868;2024-03-25T09:22:36;20.00;41.20
19180;DHT22;9722;48.754;8.868;2024-03-25T09:25:56;20.40;41.60
19180;DHT22;9722;48.754;8.868;2024-03-25T09:29:17;21.10;40.80
19180;DHT22;9722;48.754;8.868;2024-03-25T09:32:37;22.10;39.50
19180;DHT22;9722;48.754;8.868;2024-03-25T09:35:58;23.00;37.60
19180;DHT22;9722;48.754;8.868;2024-03-25T09:39:18;23.50;37.20
19180;DHT22;9722;48.754;8.868;2024-03-25T09:42:52;24.20;37.00
19180;DHT22;9722;48.754;8.868;2024-03-25T09:46:14;25.10;36.00
19180;DHT22;9722;48.754;8.868;2024-03-25T09:49:35;25.70;35.50
19180;DHT22;9722;48.754;8.868;2024-03-25T09:52:57;25.30;35.00
19180;DHT22;9722;48.754;8.868;2024-03-25T09:56:17;23.90;34.20
19180;DHT22;9722;48.754;8.868;2024-03-25T09:59:39;22.10;35.20
19180;DHT22;9722;48.754;8.868;2024-03-25T10:02:59;20.60;35.70
19180;DHT22;9722;48.754;8.868;2024-03-25T10:06:20;20.40;36.00
19180;DHT22;9722;48.754;8.868;2024-03-25T10:09:40;21.00;35.80
19180;DHT22;9722;48.754;8.868;2024-03-25T10:13:06;22.30;35.90
19180;DHT22;9722;48.754;8.868;2024-03-25T10:16:27;23.60;35.40
19180;DHT22;9722;48.754;8.868;2024-03-25T10:19:47;24.50;34.70
19180;DHT22;9722;48.754;8.868;2024-03-25T10:23:11;24.30;34.40
19180;DHT22;9722;48.754;8.868;2024-03-25T10:26:32;24.10;33.90
19180;DHT22;9722;48.754;8.868;2024-03-25T10:29:54;24.60;32.60
19180;DHT22;9722;48.754;8.868;2024-03-25T10:33:17;23.80;32.30
19180;DHT22;9722;48.754;8.868;2024-03-25T10:36:38;23.40;32.60
19180;DHT22;9722;48.754;8.868;2024-03-25T10:40:01;23.00;32.70
19180;DHT22;9722;48.754;8.868;2024-03-25T10:43:21;22.90;32.60
19180;DHT22;9722;48.754;8.868;2024-03-25T10:46:43;23.90;32.80
19180;DHT22;9722;48.754;8.868;2024-03-25T10:50:09;25.00;32.30
19180;DHT22;9722;48.754;8.868;2024-03-25T10:53:35;24.70;31.60
19180;DHT22;9722;48.754;8.868;2024-03-25T10:56:58;23.60;31.90
19180;DHT22;9722;48.754;8.868;2024-03-25T11:00:19;22.30;32.60
19180;DHT22;9722;48.754;8.868;2024-03-25T11:03:40;21.20;33.20
19180;DHT22;9722;48.754;8.868;2024-03-25T11:07:14;20.90;33.80
19180;DHT22;9722;48.754;8.868;2024-03-25T11:10:40;20.60;34.60
19180;DHT22;9722;48.754;8.868;2024-03-25T11:14:03;21.40;34.70
19180;DHT22;9722;48.754;8.868;2024-03-25T11:17:24;22.80;32.80
19180;DHT22;9722;48.754;8.868;2024-03-25T11:20:45;23.30;32.00
19180;DHT22;9722;48.754;8.868;2024-03-25T11:24:08;22.80;31.40
19180;DHT22;9722;48.754;8.868;2024-03-25T11:27:31;22.30;32.90
19180;DHT22;9722;48.754;8.868;2024-03-25T11:30:52;22.40;33.40
19180;DHT22;9722;48.754;8.868;2024-03-25T11:34:13;24.10;32.80
19180;DHT22;9722;48.754;8.868;2024-03-25T11:37:41;26.20;31.20
19180;DHT22;9722;48.754;8.868;2024-03-25T11:41:02;27.70;30.00
19180;DHT22;9722;48.754;8.868;2024-03-25T11:44:23;28.70;28.60
19180;DHT22;9722;48.754;8.868;2024-03-25T11:47:45;29.10;27.80
19180;DHT22;9722;48.754;8.868;2024-03-25T11:51:06;29.10;27.50
19180;DHT22;9722;48.754;8.868;2024-03-25T11:54:27;29.70;27.40
19180;DHT22;9722;48.754;8.868;2024-03-25T11:57:56;30.40;27.50
19180;DHT22;9722;48.754;8.868;2024-03-25T12:01:16;31.40;26.30
19180;DHT22;9722;48.754;8.868;2024-03-25T12:04:37;31.60;25.40
19180;DHT22;9722;48.754;8.868;2024-03-25T12:07:58;30.80;25.00
19180;DHT22;9722;48.754;8.868;2024-03-25T12:11:18;30.50;25.50
19180;DHT22;9722;48.754;8.868;2024-03-25T12:14:39;30.70;25.00
19180;DHT22;9722;48.754;8.868;2024-03-25T12:18:00;30.90;24.50
19180;DHT22;9722;48.754;8.868;2024-03-25T12:21:20;30.90;24.90
19180;DHT22;9722;48.754;8.868;2024-03-25T12:24:41;31.30;24.70
19180;DHT22;9722;48.754;8.868;2024-03-25T12:28:01;31.50;24.70
19180;DHT22;9722;48.754;8.868;2024-03-25T12:31:23;31.80;24.70
19180;DHT22;9722;48.754;8.868;2024-03-25T12:34:45;32.00;24.90
19180;DHT22;9722;48.754;8.868;2024-03-25T12:38:07;32.00;25.00
19180;DHT22;9722;48.754;8.868;2024-03-25T12:41:28;32.10;25.00
19180;DHT22;9722;48.754;8.868;2024-03-25T12:44:48;32.30;25.20
19180;DHT22;9722;48.754;8.868;2024-03-25T12:48:10;32.80;25.40
19180;DHT22;9722;48.754;8.868;2024-03-25T12:51:31;33.40;25.30
19180;DHT22;9722;48.754;8.868;2024-03-25T12:54:51;33.10;25.00
19180;DHT22;9722;48.754;8.868;2024-03-25T12:58:12;32.10;25.60
19180;DHT22;9722;48.754;8.868;2024-03-25T13:01:32;32.20;25.20
19180;DHT22;9722;48.754;8.868;2024-03-25T13:04:53;32.50;25.20
19180;DHT22;9722;48.754;8.868;2024-03-25T13:08:14;33.10;24.30
19180;DHT22;9722;48.754;8.868;2024-03-25T13:11:35;33.00;23.70
19180;DHT22;9722;48.754;8.868;2024-03-25T13:14:56;32.80;24.40
19180;DHT22;9722;48.754;8.868;2024-03-25T13:18:17;33.00;24.30
19180;DHT22;9722;48.754;8.868;2024-03-25T13:21:38;32.60;24.30
19180;DHT22;9722;48.754;8.868;2024-03-25T13:24:59;32.10;24.50
19180;DHT22;9722;48.754;8.868;2024-03-25T13:28:19;32.10;25.00
19180;DHT22;9722;48.754;8.868;2024-03-25T13:31:40;32.60;25.20
19180;DHT22;9722;48.754;8.868;2024-03-25T13:35:00;33.10;24.90
19180;DHT22;9722;48.754;8.868;2024-03-25T13:38:21;33.20;24.30
19180;DHT22;9722;48.754;8.868;2024-03-25T13:41:42;32.80;23.50
19180;DHT22;9722;48.754;8.868;2024-03-25T13:45:04;31.80;23.40
19180;DHT22;9722;48.754;8.868;2024-03-25T13:48:24;31.30;24.10
19180;DHT22;9722;48.754;8.868;2024-03-25T13:51:45;31.30;24.20
19180;DHT22;9722;48.754;8.868;2024-03-25T13:55:06;31.10;24.60
19180;DHT22;9722;48.754;8.868;2024-03-25T13:58:27;31.30;25.10
19180;DHT22;9722;48.754;8.868;2024-03-25T14:01:47;31.40;24.30
19180;DHT22;9722;48.754;8.868;2024-03-25T14:05:08;30.50;23.60
19180;DHT22;9722;48.754;8.868;2024-03-25T14:08:28;29.40;23.80
19180;DHT22;9722;48.754;8.868;2024-03-25T14:11:48;29.00;24.10
19180;DHT22;9722;48.754;8.868;2024-03-25T14:15:09;28.80;24.30
19180;DHT22;9722;48.754;8.868;2024-03-25T14:18:30;28.60;24.30
19180;DHT22;9722;48.754;8.868;2024-03-25T14:21:51;28.00;24.30
19180;DHT22;9722;48.754;8.868;2024-03-25T14:25:11;27.40;24.70
19180;DHT22;9722;48.754;8.868;2024-03-25T14:28:32;26.80;24.80
19180;DHT22;9722;48.754;8.868;2024-03-25T14:31:52;25.60;25.30
19180;DHT22;9722;48.754;8.868;2024-03-25T14:35:13;24.10;26.00
19180;DHT22;9722;48.754;8.868;2024-03-25T14:38:33;22.50;27.10
19180;DHT22;9722;48.754;8.868;2024-03-25T14:41:54;21.10;27.90
19180;DHT22;9722;48.754;8.868;2024-03-25T14:45:15;20.60;28.70
19180;DHT22;9722;48.754;8.868;2024-03-25T14:48:35;20.40;29.00
19180;DHT22;9722;48.754;8.868;2024-03-25T14:51:56;19.90;29.20
19180;DHT22;9722;48.754;8.868;2024-03-25T14:55:16;19.00;29.80
19180;DHT22;9722;48.754;8.868;2024-03-25T14:58:37;18.20;30.80
19180;DHT22;9722;48.754;8.868;2024-03-25T15:02:01;17.40;31.80
19180;DHT22;9722;48.754;8.868;2024-03-25T15:05:21;16.80;32.60
19180;DHT22;9722;48.754;8.868;2024-03-25T15:08:42;16.20;33.40
19180;DHT22;9722;48.754;8.868;2024-03-25T15:12:02;15.60;34.30
19180;DHT22;9722;48.754;8.868;2024-03-25T15:15:23;15.00;34.90
19180;DHT22;9722;48.754;8.868;2024-03-25T15:18:43;14.60;35.40
19180;DHT22;9722;48.754;8.868;2024-03-25T15:22:04;14.40;36.50
19180;DHT22;9722;48.754;8.868;2024-03-25T15:25:25;14.10;37.00
19180;DHT22;9722;48.754;8.868;2024-03-25T15:28:47;13.70;37.90
19180;DHT22;9722;48.754;8.868;2024-03-25T15:32:08;13.50;38.50
19180;DHT22;9722;48.754;8.868;2024-03-25T15:35:28;13.40;38.90
19180;DHT22;9722;48.754;8.868;2024-03-25T15:38:48;13.20;39.30
19180;DHT22;9722;48.754;8.868;2024-03-25T15:42:09;13.10;39.80
19180;DHT22;9722;48.754;8.868;2024-03-25T15:45:29;12.90;40.00
19180;DHT22;9722;48.754;8.868;2024-03-25T15:48:50;12.80;40.50
19180;DHT22;9722;48.754;8.868;2024-03-25T15:52:12;12.70;40.40
19180;DHT22;9722;48.754;8.868;2024-03-25T15:55:32;12.60;40.40
19180;DHT22;9722;48.754;8.868;2024-03-25T15:58:53;12.50;40.90
19180;DHT22;9722;48.754;8.868;2024-03-25T16:02:16;12.40;41.00
19180;DHT22;9722;48.754;8.868;2024-03-25T16:05:36;12.30;41.10
19180;DHT22;9722;48.754;8.868;2024-03-25T16:08:58;12.20;41.20
19180;DHT22;9722;48.754;8.868;2024-03-25T16:12:19;12.10;41.40
19180;DHT22;9722;48.754;8.868;2024-03-25T16:15:39;12.10;41.90
19180;DHT22;9722;48.754;8.868;2024-03-25T16:19:00;12.00;42.00
19180;DHT22;9722;48.754;8.868;2024-03-25T16:22:21;11.90;41.90
19180;DHT22;9722;48.754;8.868;2024-03-25T16:25:41;11.80;42.10
19180;DHT22;9722;48.754;8.868;2024-03-25T16:29:02;11.70;42.40
19180;DHT22;9722;48.754;8.868;2024-03-25T16:32:23;11.70;42.40
19180;DHT22;9722;48.754;8.868;2024-03-25T16:35:43;11.60;42.30
19180;DHT22;9722;48.754;8.868;2024-03-25T16:39:04;11.60;42.40
19180;DHT22;9722;48.754;8.868;2024-03-25T16:42:25;11.50;42.40
19180;DHT22;9722;48.754;8.868;2024-03-25T16:45:45;11.40;42.70
19180;DHT22;9722;48.754;8.868;2024-03-25T16:49:06;11.40;43.00
19180;DHT22;9722;48.754;8.868;2024-03-25T16:52:26;11.30;42.90
19180;DHT22;9722;48.754;8.868;2024-03-25T16:55:49;11.30;43.00
19180;DHT22;9722;48.754;8.868;2024-03-25T16:59:10;11.10;43.20
19180;DHT22;9722;48.754;8.868;2024-03-25T17:02:30;11.10;43.60
19180;DHT22;9722;48.754;8.868;2024-03-25T17:05:51;11.00;43.80
19180;DHT22;9722;48.754;8.868;2024-03-25T17:09:12;10.90;43.80
19180;DHT22;9722;48.754;8.868;2024-03-25T17:12:33;10.80;43.70
19180;DHT22;9722;48.754;8.868;2024-03-25T17:15:55;10.70;43.80
19180;DHT22;9722;48.754;8.868;2024-03-25T17:19:16;10.60;43.80
19180;DHT22;9722;48.754;8.868;2024-03-25T17:22:37;10.50;43.60
19180;DHT22;9722;48.754;8.868;2024-03-25T17:26:01;10.40;43.40
19180;DHT22;9722;48.754;8.868;2024-03-25T17:29:21;10.30;43.50
19180;DHT22;9722;48.754;8.868;2024-03-25T17:32:42;10.20;43.80
19180;DHT22;9722;48.754;8.868;2024-03-25T17:36:03;10.10;43.90
19180;DHT22;9722;48.754;8.868;2024-03-25T17:39:24;10.00;43.80
19180;DHT22;9722;48.754;8.868;2024-03-25T17:42:45;9.90;44.50
19180;DHT22;9722;48.754;8.868;2024-03-25T17:46:05;9.80;44.30
19180;DHT22;9722;48.754;8.868;2024-03-25T17:49:29;9.70;44.40
19180;DHT22;9722;48.754;8.868;2024-03-25T17:52:49;9.60;44.60
19180;DHT22;9722;48.754;8.868;2024-03-25T17:56:10;9.50;44.70
19180;DHT22;9722;48.754;8.868;2024-03-25T17:59:31;9.50;45.00
19180;DHT22;9722;48.754;8.868;2024-03-25T18:02:51;9.40;45.10
19180;DHT22;9722;48.754;8.868;2024-03-25T18:06:13;9.30;45.30
19180;DHT22;9722;48.754;8.868;2024-03-25T18:09:34;9.20;45.50
19180;DHT22;9722;48.754;8.868;2024-03-25T18:12:54;9.10;45.60
19180;DHT22;9722;48.754;8.868;2024-03-25T18:16:15;9.00;45.70
19180;DHT22;9722;48.754;8.868;2024-03-25T18:19:36;8.90;45.80
19180;DHT22;9722;48.754;8.868;2024-03-25T18:22:57;8.80;46.00
19180;DHT22;9722;48.754;8.868;2024-03-25T18:26:17;8.70;46.40
19180;DHT22;9722;48.754;8.868;2024-03-25T18:29:38;8.60;46.80
19180;DHT22;9722;48.754;8.868;2024-03-25T18:32:59;8.60;47.30
19180;DHT22;9722;48.754;8.868;2024-03-25T18:36:19;8.50;47.60
19180;DHT22;9722;48.754;8.868;2024-03-25T18:39:40;8.40;47.90
19180;DHT22;9722;48.754;8.868;2024-03-25T18:43:01;8.30;48.20
19180;DHT22;9722;48.754;8.868;2024-03-25T18:46:22;8.30;48.60
19180;DHT22;9722;48.754;8.868;2024-03-25T18:49:42;8.20;48.90
19180;DHT22;9722;48.754;8.868;2024-03-25T18:53:03;8.10;49.10
19180;DHT22;9722;48.754;8.868;2024-03-25T18:56:24;8.00;49.30
19180;DHT22;9722;48.754;8.868;2024-03-25T18:59:44;8.00;49.60
19180;DHT22;9722;48.754;8.868;2024-03-25T19:03:05;8.00;49.90
19180;DHT22;9722;48.754;8.868;2024-03-25T19:06:25;7.90;50.20
19180;DHT22;9722;48.754;8.868;2024-03-25T19:09:45;7.80;50.50
19180;DHT22;9722;48.754;8.868;2024-03-25T19:13:06;7.70;50.80
19180;DHT22;9722;48.754;8.868;2024-03-25T19:16:26;7.70;51.10
19180;DHT22;9722;48.754;8.868;2024-03-25T19:19:47;7.50;51.50
19180;DHT22;9722;48.754;8.868;2024-03-25T19:23:07;7.40;51.80
19180;DHT22;9722;48.754;8.868;2024-03-25T19:26:28;7.30;52.10
19180;DHT22;9722;48.754;8.868;2024-03-25T19:29:48;7.20;52.40
19180;DHT22;9722;48.754;8.868;2024-03-25T19:33:09;7.20;52.60
19180;DHT22;9722;48.754;8.868;2024-03-25T19:36:29;7.10;52.80
19180;DHT22;9722;48.754;8.868;2024-03-25T19:39:50;7.10;53.20
19180;DHT22;9722;48.754;8.868;2024-03-25T19:43:10;7.00;53.40
19180;DHT22;9722;48.754;8.868;2024-03-25T19:46:31;6.90;53.50
19180;DHT22;9722;48.754;8.868;2024-03-25T19:49:51;6.90;53.70
19180;DHT22;9722;48.754;8.868;2024-03-25T19:53:12;6.80;53.90
19180;DHT22;9722;48.754;8.868;2024-03-25T19:56:32;6.70;54.10
19180;DHT22;9722;48.754;8.868;2024-03-25T19:59:53;6.70;54.40
19180;DHT22;9722;48.754;8.868;2024-03-25T20:03:15;6.70;54.60
19180;DHT22;9722;48.754;8.868;2024-03-25T20:06:36;6.60;54.80
19180;DHT22;9722;48.754;8.868;2024-03-25T20:09:57;6.60;54.90
19180;DHT22;9722;48.754;8.868;2024-03-25T20:13:17;6.60;55.40
19180;DHT22;9722;48.754;8.868;2024-03-25T20:16:38;6.60;55.40
19180;DHT22;9722;48.754;8.868;2024-03-25T20:19:58;6.50;55.40
19180;DHT22;9722;48.754;8.868;2024-03-25T20:23:19;6.40;55.30
19180;DHT22;9722;48.754;8.868;2024-03-25T20:26:39;6.40;55.50
19180;DHT22;9722;48.754;8.868;2024-03-25T20:29:59;6.40;55.70
19180;DHT22;9722;48.754;8.868;2024-03-25T20:33:20;6.30;55.80
19180;DHT22;9722;48.754;8.868;2024-03-25T20:36:41;6.30;56.00
19180;DHT22;9722;48.754;8.868;2024-03-25T20:40:01;6.30;56.20
19180;DHT22;9722;48.754;8.868;2024-03-25T20:43:22;6.20;56.30
19180;DHT22;9722;48.754;8.868;2024-03-25T20:46:42;6.20;56.50
19180;DHT22;9722;48.754;8.868;2024-03-25T20:50:04;6.20;56.60
19180;DHT22;9722;48.754;8.868;2024-03-25T20:53:25;6.10;56.80
19180;DHT22;9722;48.754;8.868;2024-03-25T20:56:46;6.10;57.00
19180;DHT22;9722;48.754;8.868;2024-03-25T21:00:07;6.00;57.20
19180;DHT22;9722;48.754;8.868;2024-03-25T21:03:29;6.00;57.30
19180;DHT22;9722;48.754;8.868;2024-03-25T21:06:50;5.90;57.50
19180;DHT22;9722;48.754;8.868;2024-03-25T21:10:11;5.80;57.80
19180;DHT22;9722;48.754;8.868;2024-03-25T21:13:31;5.70;58.30
19180;DHT22;9722;48.754;8.868;2024-03-25T21:16:52;5.60;58.50
19180;DHT22;9722;48.754;8.868;2024-03-25T21:20:13;5.50;58.70
19180;DHT22;9722;48.754;8.868;2024-03-25T21:23:36;5.40;59.00
19180;DHT22;9722;48.754;8.868;2024-03-25T21:26:57;5.30;59.00
19180;DHT22;9722;48.754;8.868;2024-03-25T21:30:18;5.30;59.30
19180;DHT22;9722;48.754;8.868;2024-03-25T21:33:38;5.30;59.40
19180;DHT22;9722;48.754;8.868;2024-03-25T21:36:59;5.20;59.60
19180;DHT22;9722;48.754;8.868;2024-03-25T21:40:19;5.20;59.80
19180;DHT22;9722;48.754;8.868;2024-03-25T21:43:40;5.20;60.00